Terminal Aerodrome Forecast
Issued by NWS

Home | Current Version | Previous Version | Text Only | Print | Product List | Glossary On
Versions: 1 2 3 4 5 6 7 8 9 10 11 12 13 14 15 16 17 18 19 20 21 22 23 24
000
FTUS43 KAPX 170233 AAA
TAFMBL
TAF AMD
KMBL 170233Z 1703/1724 10006KT P6SM OVC015
      TEMPO 1703/1707 SCT015 OVC035
     FM171600 12005KT P6SM OVC020
     FM172100 12004KT 4SM BR OVC015=

USA.gov is the U.S. government's official web portal to all federal, state and local government web resources and services.